sensor_id;sensor_type;location;lat;lon;timestamp;pressure;altitude;pressure_sealevel;temperature;humidity
5350;BME280;2697;42.144;24.794;2022-07-29T00:08:35;158555.78;;;23.12;73.68
5350;BME280;2697;42.144;24.794;2022-07-29T00:11:19;158545.19;;;23.08;74.38
5350;BME280;2697;42.144;24.794;2022-07-29T00:17:34;158543.81;;;23.08;74.89
5350;BME280;2697;42.144;24.794;2022-07-29T00:20:24;158551.81;;;23.11;74.73
5350;BME280;2697;42.144;24.794;2022-07-29T00:22:50;158543.81;;;23.08;75.32
5350;BME280;2697;42.144;24.794;2022-07-29T00:25:30;158530.53;;;23.02;75.58
5350;BME280;2697;42.144;24.794;2022-07-29T00:27:56;158522.59;;;22.99;76.07
5350;BME280;2697;42.144;24.794;2022-07-29T00:34:02;158510.59;;;22.95;76.34
5350;BME280;2697;42.144;24.794;2022-07-29T00:40:27;158453.44;;;22.73;77.96
5350;BME280;2697;42.144;24.794;2022-07-29T01:06:19;158408.25;;;22.56;81.08
5350;BME280;2697;42.144;24.794;2022-07-29T01:08:47;158402.97;;;22.54;81.30
5350;BME280;2697;42.144;24.794;2022-07-29T01:11:16;158410.91;;;22.57;80.87
5350;BME280;2697;42.144;24.794;2022-07-29T01:13:43;158408.25;;;22.56;80.80
5350;BME280;2697;42.144;24.794;2022-07-29T01:16:14;158413.56;;;22.58;80.57
5350;BME280;2697;42.144;24.794;2022-07-29T01:18:44;158394.94;;;22.51;80.93
5350;BME280;2697;42.144;24.794;2022-07-29T01:21:27;158384.34;;;22.46;80.95
5350;BME280;2697;42.144;24.794;2022-07-29T01:24:14;158363.09;;;22.38;82.35
5350;BME280;2697;42.144;24.794;2022-07-29T01:29:57;158372.38;;;22.42;82.25
5350;BME280;2697;42.144;24.794;2022-07-29T01:32:28;158365.75;;;22.39;82.50
5350;BME280;2697;42.144;24.794;2022-07-29T01:40:02;158387.00;;;22.47;82.60
5350;BME280;2697;42.144;24.794;2022-07-29T01:42:44;158381.69;;;22.45;83.27
5350;BME280;2697;42.144;24.794;2022-07-29T01:45:39;158389.66;;;22.48;82.94
5350;BME280;2697;42.144;24.794;2022-07-29T01:48:29;158373.69;;;22.42;83.23
5350;BME280;2697;42.144;24.794;2022-07-29T01:51:11;158367.06;;;22.40;83.45
5350;BME280;2697;42.144;24.794;2022-07-29T01:53:46;158369.72;;;22.41;83.71
5350;BME280;2697;42.144;24.794;2022-07-29T01:56:13;158364.41;;;22.39;83.68
5350;BME280;2697;42.144;24.794;2022-07-29T01:58:41;158303.34;;;22.15;84.62
5350;BME280;2697;42.144;24.794;2022-07-29T02:01:09;158355.13;;;22.35;83.48
5350;BME280;2697;42.144;24.794;2022-07-29T02:03:36;158333.88;;;22.27;83.36
5350;BME280;2697;42.144;24.794;2022-07-29T02:06:03;158356.47;;;22.36;83.07
5350;BME280;2697;42.144;24.794;2022-07-29T02:08:31;158329.91;;;22.26;83.75
5350;BME280;2697;42.144;24.794;2022-07-29T02:11:00;158291.38;;;22.11;85.17
5350;BME280;2697;42.144;24.794;2022-07-29T02:13:27;158278.06;;;22.06;85.79
5350;BME280;2697;42.144;24.794;2022-07-29T02:15:53;158280.75;;;22.07;85.77
5350;BME280;2697;42.144;24.794;2022-07-29T02:18:22;158275.34;;;22.05;86.14
5350;BME280;2697;42.144;24.794;2022-07-29T02:20:51;158276.69;;;22.05;86.11
5350;BME280;2697;42.144;24.794;2022-07-29T02:23:23;158275.34;;;22.05;85.89
5350;BME280;2697;42.144;24.794;2022-07-29T02:25:51;158291.38;;;22.11;85.81
5350;BME280;2697;42.144;24.794;2022-07-29T02:28:18;158312.63;;;22.19;85.45
5350;BME280;2697;42.144;24.794;2022-07-29T02:30:45;158317.91;;;22.21;84.99
5350;BME280;2697;42.144;24.794;2022-07-29T02:33:14;158336.53;;;22.28;84.86
5350;BME280;2697;42.144;24.794;2022-07-29T02:35:41;158353.81;;;22.35;84.38
5350;BME280;2697;42.144;24.794;2022-07-29T02:38:12;158337.84;;;22.29;85.17
5350;BME280;2697;42.144;24.794;2022-07-29T02:40:57;158340.50;;;22.30;84.98
5350;BME280;2697;42.144;24.794;2022-07-29T02:43:24;158344.47;;;22.31;85.04
5350;BME280;2697;42.144;24.794;2022-07-29T02:45:52;158336.53;;;22.28;84.89
5350;BME280;2697;42.144;24.794;2022-07-29T02:48:22;158323.22;;;22.23;85.37
5350;BME280;2697;42.144;24.794;2022-07-29T02:50:51;158315.28;;;22.20;85.33
5350;BME280;2697;42.144;24.794;2022-07-29T02:53:23;158316.59;;;22.21;84.70
5350;BME280;2697;42.144;24.794;2022-07-29T02:55:59;158300.63;;;22.14;84.89
5350;BME280;2697;42.144;24.794;2022-07-29T02:58:57;158259.47;;;21.99;86.22
5350;BME280;2697;42.144;24.794;2022-07-29T03:01:24;158228.88;;;21.87;86.11
5350;BME280;2697;42.144;24.794;2022-07-29T03:03:52;158226.22;;;21.86;85.95
5350;BME280;2697;42.144;24.794;2022-07-29T03:06:21;158231.59;;;21.88;85.75
5350;BME280;2697;42.144;24.794;2022-07-29T03:08:48;158235.56;;;21.89;85.10
5350;BME280;2697;42.144;24.794;2022-07-29T03:11:14;158240.84;;;21.91;85.02
5350;BME280;2697;42.144;24.794;2022-07-29T03:13:41;158250.13;;;21.95;84.66
5350;BME280;2697;42.144;24.794;2022-07-29T03:16:07;158266.09;;;22.01;84.57
5350;BME280;2697;42.144;24.794;2022-07-29T03:18:34;158256.81;;;21.98;84.67
5350;BME280;2697;42.144;24.794;2022-07-29T03:21:00;158251.47;;;21.96;84.79
5350;BME280;2697;42.144;24.794;2022-07-29T03:23:25;158262.09;;;22.00;84.47
5350;BME280;2697;42.144;24.794;2022-07-29T03:25:53;158272.72;;;22.04;84.11
5350;BME280;2697;42.144;24.794;2022-07-29T03:28:19;158283.41;;;22.08;83.80
5350;BME280;2697;42.144;24.794;2022-07-29T03:30:45;158307.31;;;22.17;83.66
5350;BME280;2697;42.144;24.794;2022-07-29T03:33:10;158368.38;;;22.40;82.43
5350;BME280;2697;42.144;24.794;2022-07-29T03:35:35;158409.59;;;22.56;81.47
5350;BME280;2697;42.144;24.794;2022-07-29T03:38:01;158448.13;;;22.71;80.75
5350;BME280;2697;42.144;24.794;2022-07-29T03:40:40;158522.59;;;22.99;79.19
5350;BME280;2697;42.144;24.794;2022-07-29T03:43:08;158608.94;;;23.32;77.47
5350;BME280;2697;42.144;24.794;2022-07-29T03:45:35;158718.03;;;23.74;75.86
5350;BME280;2697;42.144;24.794;2022-07-29T03:48:05;158801.78;;;24.06;73.57
5350;BME280;2697;42.144;24.794;2022-07-29T03:50:33;158892.28;;;24.41;72.20
5350;BME280;2697;42.144;24.794;2022-07-29T03:52:59;158945.47;;;24.61;70.37
5350;BME280;2697;42.144;24.794;2022-07-29T03:55:28;159054.59;;;25.03;68.96
5350;BME280;2697;42.144;24.794;2022-07-29T03:57:55;159147.75;;;25.39;66.96
5350;BME280;2697;42.144;24.794;2022-07-29T04:00:23;159264.97;;;25.83;64.42
5350;BME280;2697;42.144;24.794;2022-07-29T04:02:49;159350.19;;;26.16;62.88
5350;BME280;2697;42.144;24.794;2022-07-29T04:05:16;159346.16;;;26.14;62.40
5350;BME280;2697;42.144;24.794;2022-07-29T04:07:46;159458.09;;;26.57;60.68
5350;BME280;2697;42.144;24.794;2022-07-29T04:10:12;159482.06;;;26.66;59.02
5350;BME280;2697;42.144;24.794;2022-07-29T04:12:38;159492.72;;;26.70;60.02
5350;BME280;2697;42.144;24.794;2022-07-29T04:15:04;159434.13;;;26.48;60.06
5350;BME280;2697;42.144;24.794;2022-07-29T04:17:30;159540.66;;;26.89;58.40
5350;BME280;2697;42.144;24.794;2022-07-29T04:19:55;159472.78;;;26.63;58.76
5350;BME280;2697;42.144;24.794;2022-07-29T04:22:21;159454.13;;;26.56;60.90
5350;BME280;2697;42.144;24.794;2022-07-29T04:24:46;159407.50;;;26.38;60.22
5350;BME280;2697;42.144;24.794;2022-07-29T04:27:12;159544.72;;;26.90;59.03
5350;BME280;2697;42.144;24.794;2022-07-29T04:29:37;159486.06;;;26.68;60.15
5350;BME280;2697;42.144;24.794;2022-07-29T04:32:03;159551.34;;;26.93;59.27
5350;BME280;2697;42.144;24.794;2022-07-29T04:34:28;159712.59;;;27.54;56.93
5350;BME280;2697;42.144;24.794;2022-07-29T04:36:54;159635.31;;;27.25;57.27
5350;BME280;2697;42.144;24.794;2022-07-29T04:39:20;159681.97;;;27.43;57.38
5350;BME280;2697;42.144;24.794;2022-07-29T04:41:45;159795.31;;;27.86;55.47
5350;BME280;2697;42.144;24.794;2022-07-29T04:44:11;159777.97;;;27.79;54.88
5350;BME280;2697;42.144;24.794;2022-07-29T04:46:36;159799.31;;;27.88;54.99
5350;BME280;2697;42.144;24.794;2022-07-29T04:49:02;159970.03;;;28.53;52.96
5350;BME280;2697;42.144;24.794;2022-07-29T04:51:28;160206.22;;;29.43;50.42
5350;BME280;2697;42.144;24.794;2022-07-29T04:53:53;160192.84;;;29.38;49.77
5350;BME280;2697;42.144;24.794;2022-07-29T04:56:19;160353.06;;;29.99;48.60
5350;BME280;2697;42.144;24.794;2022-07-29T04:58:45;160497.28;;;30.54;46.69
5350;BME280;2697;42.144;24.794;2022-07-29T05:01:11;160713.69;;;31.36;45.06
5350;BME280;2697;42.144;24.794;2022-07-29T05:03:36;160544.06;;;30.72;45.10
5350;BME280;2697;42.144;24.794;2022-07-29T05:06:02;160652.22;;;31.13;45.33
5350;BME280;2697;42.144;24.794;2022-07-29T05:08:27;160443.84;;;30.33;46.36
5350;BME280;2697;42.144;24.794;2022-07-29T05:10:53;160745.78;;;31.48;44.53
5350;BME280;2697;42.144;24.794;2022-07-29T05:13:18;160656.22;;;31.14;44.25
5350;BME280;2697;42.144;24.794;2022-07-29T05:15:43;160529.38;;;30.66;45.12
5350;BME280;2697;42.144;24.794;2022-07-29T05:18:09;160471.94;;;30.44;44.32
5350;BME280;2697;42.144;24.794;2022-07-29T05:20:34;160453.22;;;30.37;44.78
5350;BME280;2697;42.144;24.794;2022-07-29T05:23:01;160465.22;;;30.42;44.47
5350;BME280;2697;42.144;24.794;2022-07-29T05:25:27;160752.47;;;31.51;42.16
5350;BME280;2697;42.144;24.794;2022-07-29T05:27:53;160966.38;;;32.32;40.62
5350;BME280;2697;42.144;24.794;2022-07-29T05:30:19;161053.22;;;32.66;39.79
5350;BME280;2697;42.144;24.794;2022-07-29T05:32:45;161288.69;;;33.55;38.66
5350;BME280;2697;42.144;24.794;2022-07-29T05:35:11;161364.94;;;33.84;38.01
5350;BME280;2697;42.144;24.794;2022-07-29T05:37:37;161243.22;;;33.38;38.41
5350;BME280;2697;42.144;24.794;2022-07-29T05:40:03;161299.38;;;33.59;38.09
5350;BME280;2697;42.144;24.794;2022-07-29T05:42:29;161170.94;;;33.10;38.59
5350;BME280;2697;42.144;24.794;2022-07-29T05:44:54;161140.22;;;32.99;38.59
5350;BME280;2697;42.144;24.794;2022-07-29T05:47:20;161007.81;;;32.48;39.79
5350;BME280;2697;42.144;24.794;2022-07-29T05:49:46;160959.72;;;32.30;40.32
5350;BME280;2697;42.144;24.794;2022-07-29T05:52:12;160851.38;;;31.89;40.71
5350;BME280;2697;42.144;24.794;2022-07-29T05:54:38;160882.09;;;32.00;40.83
5350;BME280;2697;42.144;24.794;2022-07-29T05:57:05;160903.50;;;32.09;40.93
5350;BME280;2697;42.144;24.794;2022-07-29T06:02:04;160898.16;;;32.07;41.13
5350;BME280;2697;42.144;24.794;2022-07-29T06:04:32;161180.34;;;33.14;39.11
5350;BME280;2697;42.144;24.794;2022-07-29T06:06:58;161252.59;;;33.41;38.60
5350;BME280;2697;42.144;24.794;2022-07-29T06:09:24;161172.28;;;33.11;38.97
5350;BME280;2697;42.144;24.794;2022-07-29T06:11:49;161025.16;;;32.55;40.14
5350;BME280;2697;42.144;24.794;2022-07-29T06:14:15;160852.72;;;31.89;40.76
5350;BME280;2697;42.144;24.794;2022-07-29T06:16:40;161399.78;;;33.97;37.87
5350;BME280;2697;42.144;24.794;2022-07-29T06:19:06;161494.75;;;34.34;37.07
5350;BME280;2697;42.144;24.794;2022-07-29T06:21:31;161291.38;;;33.56;38.45
5350;BME280;2697;42.144;24.794;2022-07-29T06:23:57;161923.34;;;35.96;34.30
5350;BME280;2697;42.144;24.794;2022-07-29T06:26:23;161698.31;;;35.11;35.42
5350;BME280;2697;42.144;24.794;2022-07-29T06:28:49;161441.22;;;34.13;36.41
5350;BME280;2697;42.144;24.794;2022-07-29T06:31:14;161406.47;;;34.00;36.55
5350;BME280;2697;42.144;24.794;2022-07-29T06:33:39;162038.59;;;36.40;33.53
5350;BME280;2697;42.144;24.794;2022-07-29T06:36:05;161928.69;;;35.98;34.19
5350;BME280;2697;42.144;24.794;2022-07-29T06:38:32;162188.69;;;36.97;32.12
5350;BME280;2697;42.144;24.794;2022-07-29T06:40:57;161867.06;;;35.75;34.10
5350;BME280;2697;42.144;24.794;2022-07-29T06:43:36;161914.00;;;35.93;33.87
5350;BME280;2697;42.144;24.794;2022-07-29T06:46:04;162350.88;;;37.59;31.22
5350;BME280;2697;42.144;24.794;2022-07-29T06:48:31;162964.03;;;39.92;28.04
5350;BME280;2697;42.144;24.794;2022-07-29T06:50:57;162428.72;;;37.88;30.10
5350;BME280;2697;42.144;24.794;2022-07-29T06:53:23;162218.16;;;37.08;31.39
5350;BME280;2697;42.144;24.794;2022-07-29T06:55:48;162078.75;;;36.56;32.47
5350;BME280;2697;42.144;24.794;2022-07-29T06:58:14;161477.38;;;34.27;35.66
5350;BME280;2697;42.144;24.794;2022-07-29T07:00:41;161010.50;;;32.49;39.11
5350;BME280;2697;42.144;24.794;2022-07-29T07:03:07;161172.28;;;33.11;37.77
5350;BME280;2697;42.144;24.794;2022-07-29T07:05:32;161047.91;;;32.64;37.70
5350;BME280;2697;42.144;24.794;2022-07-29T07:07:58;161994.34;;;36.23;32.77
5350;BME280;2697;42.144;24.794;2022-07-29T07:10:23;161671.53;;;35.01;34.01
5350;BME280;2697;42.144;24.794;2022-07-29T07:12:48;161954.13;;;36.08;32.78
5350;BME280;2697;42.144;24.794;2022-07-29T07:15:14;161144.22;;;33.00;37.19
5350;BME280;2697;42.144;24.794;2022-07-29T07:17:39;160874.09;;;31.97;39.50
5350;BME280;2697;42.144;24.794;2022-07-29T07:20:05;160582.78;;;30.86;41.39
5350;BME280;2697;42.144;24.794;2022-07-29T07:22:31;160804.56;;;31.71;39.60
5350;BME280;2697;42.144;24.794;2022-07-29T07:24:56;161425.22;;;34.07;36.09
5350;BME280;2697;42.144;24.794;2022-07-29T07:27:22;162108.22;;;36.67;31.83
5350;BME280;2697;42.144;24.794;2022-07-29T07:29:47;161750.50;;;35.31;33.66
5350;BME280;2697;42.144;24.794;2022-07-29T07:32:13;162084.09;;;36.58;32.49
5350;BME280;2697;42.144;24.794;2022-07-29T07:34:41;161755.84;;;35.33;33.47
5350;BME280;2697;42.144;24.794;2022-07-29T07:37:06;161577.78;;;34.65;34.21
5350;BME280;2697;42.144;24.794;2022-07-29T07:39:32;161435.91;;;34.11;35.68
5350;BME280;2697;42.144;24.794;2022-07-29T07:41:58;160970.38;;;32.34;37.37
5350;BME280;2697;42.144;24.794;2022-07-29T07:44:24;160935.59;;;32.21;39.16
5350;BME280;2697;42.144;24.794;2022-07-29T07:46:49;160783.19;;;31.63;40.39
5350;BME280;2697;42.144;24.794;2022-07-29T07:49:14;160855.38;;;31.90;40.08
5350;BME280;2697;42.144;24.794;2022-07-29T07:51:40;161296.72;;;33.58;36.45
5350;BME280;2697;42.144;24.794;2022-07-29T07:54:05;161233.81;;;33.34;35.28
5350;BME280;2697;42.144;24.794;2022-07-29T07:56:31;161623.31;;;34.82;33.79
5350;BME280;2697;42.144;24.794;2022-07-29T07:58:56;161810.78;;;35.54;33.75
5350;BME280;2697;42.144;24.794;2022-07-29T08:01:21;161596.53;;;34.72;33.34
5350;BME280;2697;42.144;24.794;2022-07-29T08:03:49;161646.13;;;34.91;32.74
5350;BME280;2697;42.144;24.794;2022-07-29T08:06:15;161631.31;;;34.85;33.27
5350;BME280;2697;42.144;24.794;2022-07-29T08:08:40;160998.44;;;32.45;35.41
5350;BME280;2697;42.144;24.794;2022-07-29T08:11:06;160924.88;;;32.17;36.12
5350;BME280;2697;42.144;24.794;2022-07-29T08:13:32;161235.16;;;33.35;34.45
5350;BME280;2697;42.144;24.794;2022-07-29T08:15:58;161269.97;;;33.48;33.93
5350;BME280;2697;42.144;24.794;2022-07-29T08:18:30;161039.91;;;32.60;36.03
5350;BME280;2697;42.144;24.794;2022-07-29T08:20:56;160822.00;;;31.77;35.61
5350;BME280;2697;42.144;24.794;2022-07-29T08:23:22;160880.78;;;32.00;34.98
5350;BME280;2697;42.144;24.794;2022-07-29T08:25:52;160843.38;;;31.86;35.29
5350;BME280;2697;42.144;24.794;2022-07-29T08:28:17;160610.81;;;30.97;37.35
5350;BME280;2697;42.144;24.794;2022-07-29T08:30:43;160446.56;;;30.34;38.24
5350;BME280;2697;42.144;24.794;2022-07-29T08:33:08;160467.88;;;30.43;37.31
5350;BME280;2697;42.144;24.794;2022-07-29T08:35:33;160570.78;;;30.82;37.19
5350;BME280;2697;42.144;24.794;2022-07-29T08:37:59;160628.19;;;31.04;36.46
5350;BME280;2697;42.144;24.794;2022-07-29T08:40:24;160670.94;;;31.20;35.71
5350;BME280;2697;42.144;24.794;2022-07-29T08:42:50;160546.75;;;30.73;36.68
5350;BME280;2697;42.144;24.794;2022-07-29T08:45:16;160423.88;;;30.26;36.93
5350;BME280;2697;42.144;24.794;2022-07-29T08:47:44;160525.38;;;30.64;36.78
5350;BME280;2697;42.144;24.794;2022-07-29T08:50:10;160486.59;;;30.50;37.18
5350;BME280;2697;42.144;24.794;2022-07-29T08:52:38;160558.72;;;30.77;36.42
5350;BME280;2697;42.144;24.794;2022-07-29T08:55:06;160569.44;;;30.81;36.38
5350;BME280;2697;42.144;24.794;2022-07-29T08:57:33;160588.09;;;30.88;37.41
5350;BME280;2697;42.144;24.794;2022-07-29T09:00:00;160630.84;;;31.05;35.50
5350;BME280;2697;42.144;24.794;2022-07-29T09:02:28;160609.47;;;30.97;36.44
5350;BME280;2697;42.144;24.794;2022-07-29T09:04:56;160576.13;;;30.84;36.69
5350;BME280;2697;42.144;24.794;2022-07-29T09:07:24;160649.56;;;31.12;36.02
5350;BME280;2697;42.144;24.794;2022-07-29T09:09:50;160637.53;;;31.07;35.86
5350;BME280;2697;42.144;24.794;2022-07-29T09:12:15;160624.19;;;31.02;36.44
5350;BME280;2697;42.144;24.794;2022-07-29T09:14:41;160581.44;;;30.86;35.57
5350;BME280;2697;42.144;24.794;2022-07-29T09:17:07;160483.91;;;30.49;35.97
5350;BME280;2697;42.144;24.794;2022-07-29T09:19:34;160489.25;;;30.51;36.08
5350;BME280;2697;42.144;24.794;2022-07-29T09:22:02;160532.03;;;30.67;36.69
5350;BME280;2697;42.144;24.794;2022-07-29T09:27:00;160728.41;;;31.42;35.61
5350;BME280;2697;42.144;24.794;2022-07-29T09:29:27;160767.19;;;31.57;35.61
5350;BME280;2697;42.144;24.794;2022-07-29T09:31:55;160832.66;;;31.82;35.29
5350;BME280;2697;42.144;24.794;2022-07-29T09:34:25;160834.00;;;31.82;33.69
5350;BME280;2697;42.144;24.794;2022-07-29T09:36:53;160826.00;;;31.79;35.31
5350;BME280;2697;42.144;24.794;2022-07-29T09:41:55;160767.19;;;31.57;34.62
5350;BME280;2697;42.144;24.794;2022-07-29T09:44:22;160748.47;;;31.49;34.86
5350;BME280;2697;42.144;24.794;2022-07-29T09:47:04;160823.34;;;31.78;34.84
5350;BME280;2697;42.144;24.794;2022-07-29T09:49:49;160791.22;;;31.66;33.01
5350;BME280;2697;42.144;24.794;2022-07-29T09:52:15;160850.03;;;31.88;32.78
5350;BME280;2697;42.144;24.794;2022-07-29T09:54:40;160887.50;;;32.02;32.29
5350;BME280;2697;42.144;24.794;2022-07-29T09:57:07;160928.88;;;32.18;31.37
5350;BME280;2697;42.144;24.794;2022-07-29T09:59:37;160956.94;;;32.29;30.78
5350;BME280;2697;42.144;24.794;2022-07-29T10:02:11;160878.09;;;31.99;31.31
5350;BME280;2697;42.144;24.794;2022-07-29T10:04:41;160871.44;;;31.96;32.11
5350;BME280;2697;42.144;24.794;2022-07-29T10:07:08;160874.09;;;31.97;32.24
5350;BME280;2697;42.144;24.794;2022-07-29T10:09:34;160887.50;;;32.02;32.53
5350;BME280;2697;42.144;24.794;2022-07-29T10:12:13;160954.28;;;32.28;32.27
5350;BME280;2697;42.144;24.794;2022-07-29T10:14:40;160985.09;;;32.40;32.24
5350;BME280;2697;42.144;24.794;2022-07-29T10:17:07;161053.22;;;32.66;31.96
5350;BME280;2697;42.144;24.794;2022-07-29T10:19:33;161026.50;;;32.55;32.26
5350;BME280;2697;42.144;24.794;2022-07-29T10:22:01;161106.81;;;32.86;31.31
5350;BME280;2697;42.144;24.794;2022-07-29T10:24:28;161058.63;;;32.68;31.43
5350;BME280;2697;42.144;24.794;2022-07-29T10:26:56;160990.44;;;32.42;32.25
5350;BME280;2697;42.144;24.794;2022-07-29T10:29:23;160951.59;;;32.27;32.50
5350;BME280;2697;42.144;24.794;2022-07-29T10:37:37;160950.28;;;32.26;33.59
5350;BME280;2697;42.144;24.794;2022-07-29T10:40:26;161006.44;;;32.48;32.25
5350;BME280;2697;42.144;24.794;2022-07-29T10:43:19;161090.69;;;32.80;32.75
5350;BME280;2697;42.144;24.794;2022-07-29T10:45:48;161153.56;;;33.04;32.69
5350;BME280;2697;42.144;24.794;2022-07-29T10:48:14;161078.63;;;32.75;32.73
5350;BME280;2697;42.144;24.794;2022-07-29T10:50:57;161039.91;;;32.60;32.53
5350;BME280;2697;42.144;24.794;2022-07-29T10:53:24;161093.34;;;32.81;32.49
5350;BME280;2697;42.144;24.794;2022-07-29T10:56:26;161184.34;;;33.15;32.00
5350;BME280;2697;42.144;24.794;2022-07-29T11:01:50;161245.88;;;33.39;31.88
5350;BME280;2697;42.144;24.794;2022-07-29T11:04:17;161102.75;;;32.84;33.22
5350;BME280;2697;42.144;24.794;2022-07-29T11:09:30;161105.47;;;32.85;33.24
5350;BME280;2697;42.144;24.794;2022-07-29T11:11:56;161146.88;;;33.01;33.63
5350;BME280;2697;42.144;24.794;2022-07-29T11:14:57;161189.69;;;33.17;32.92
5350;BME280;2697;42.144;24.794;2022-07-29T11:17:24;161165.63;;;33.08;33.31
5350;BME280;2697;42.144;24.794;2022-07-29T11:19:49;161128.16;;;32.94;33.94
5350;BME280;2697;42.144;24.794;2022-07-29T11:22:35;161152.22;;;33.03;33.56
5350;BME280;2697;42.144;24.794;2022-07-29T11:25:14;161188.34;;;33.17;33.34
5350;BME280;2697;42.144;24.794;2022-07-29T11:27:40;161229.81;;;33.33;33.01
5350;BME280;2697;42.144;24.794;2022-07-29T11:30:06;161174.94;;;33.12;32.68
5350;BME280;2697;42.144;24.794;2022-07-29T11:32:43;161126.81;;;32.94;33.28
5350;BME280;2697;42.144;24.794;2022-07-29T11:35:18;161209.75;;;33.25;32.42
5350;BME280;2697;42.144;24.794;2022-07-29T11:37:46;161292.69;;;33.57;32.49
5350;BME280;2697;42.144;24.794;2022-07-29T11:40:13;161245.88;;;33.39;31.14
5350;BME280;2697;42.144;24.794;2022-07-29T11:42:40;161229.81;;;33.33;32.01
5350;BME280;2697;42.144;24.794;2022-07-29T11:45:10;161208.41;;;33.25;32.44
5350;BME280;2697;42.144;24.794;2022-07-29T11:47:39;161291.38;;;33.56;32.58
5350;BME280;2697;42.144;24.794;2022-07-29T11:50:11;161323.44;;;33.68;31.62
5350;BME280;2697;42.144;24.794;2022-07-29T11:52:42;161253.94;;;33.42;32.40
5350;BME280;2697;42.144;24.794;2022-07-29T11:55:10;161296.72;;;33.58;31.80
5350;BME280;2697;42.144;24.794;2022-07-29T11:57:37;161310.09;;;33.63;32.32
5350;BME280;2697;42.144;24.794;2022-07-29T12:00:05;161403.81;;;33.99;31.42
5350;BME280;2697;42.144;24.794;2022-07-29T12:02:42;161441.22;;;34.13;31.51
5350;BME280;2697;42.144;24.794;2022-07-29T12:05:09;161363.59;;;33.84;30.90
5350;BME280;2697;42.144;24.794;2022-07-29T12:07:37;161366.28;;;33.85;31.37
5350;BME280;2697;42.144;24.794;2022-07-29T12:10:03;161363.59;;;33.84;30.75
5350;BME280;2697;42.144;24.794;2022-07-29T12:12:29;161371.59;;;33.87;30.24
5350;BME280;2697;42.144;24.794;2022-07-29T12:14:54;161350.25;;;33.79;31.02
5350;BME280;2697;42.144;24.794;2022-07-29T12:17:33;161441.22;;;34.13;30.32
5350;BME280;2697;42.144;24.794;2022-07-29T12:20:02;161405.13;;;33.99;30.01
5350;BME280;2697;42.144;24.794;2022-07-29T12:22:39;161344.84;;;33.77;30.55
5350;BME280;2697;42.144;24.794;2022-07-29T12:25:08;161371.59;;;33.87;30.46
5350;BME280;2697;42.144;24.794;2022-07-29T12:27:35;161371.59;;;33.87;30.87
5350;BME280;2697;42.144;24.794;2022-07-29T12:30:07;161409.13;;;34.01;30.46
5350;BME280;2697;42.144;24.794;2022-07-29T12:32:44;161327.50;;;33.70;30.87
5350;BME280;2697;42.144;24.794;2022-07-29T12:35:16;161366.28;;;33.85;30.19
5350;BME280;2697;42.144;24.794;2022-07-29T12:37:45;161472.00;;;34.25;30.45
5350;BME280;2697;42.144;24.794;2022-07-29T12:40:12;161403.81;;;33.99;30.69
5350;BME280;2697;42.144;24.794;2022-07-29T12:42:39;161459.97;;;34.20;30.97
5350;BME280;2697;42.144;24.794;2022-07-29T12:45:05;161532.28;;;34.48;30.43
5350;BME280;2697;42.144;24.794;2022-07-29T12:48:00;161402.47;;;33.98;31.66
5350;BME280;2697;42.144;24.794;2022-07-29T12:50:25;161366.28;;;33.85;31.41
5350;BME280;2697;42.144;24.794;2022-07-29T12:52:51;161382.38;;;33.91;31.06
5350;BME280;2697;42.144;24.794;2022-07-29T12:58:04;161505.47;;;34.38;31.13
5350;BME280;2697;42.144;24.794;2022-07-29T13:00:29;161454.63;;;34.18;30.63
5350;BME280;2697;42.144;24.794;2022-07-29T13:02:57;161548.34;;;34.54;30.50
5350;BME280;2697;42.144;24.794;2022-07-29T13:05:23;161467.97;;;34.23;30.61
5350;BME280;2697;42.144;24.794;2022-07-29T13:07:49;161409.13;;;34.01;31.23
5350;BME280;2697;42.144;24.794;2022-07-29T13:10:20;161486.72;;;34.30;31.16
5350;BME280;2697;42.144;24.794;2022-07-29T13:13:05;161600.56;;;34.74;30.61
5350;BME280;2697;42.144;24.794;2022-07-29T13:15:31;161534.97;;;34.49;30.57
5350;BME280;2697;42.144;24.794;2022-07-29T13:17:57;161442.56;;;34.14;30.59
5350;BME280;2697;42.144;24.794;2022-07-29T13:20:28;161419.81;;;34.05;30.97
5350;BME280;2697;42.144;24.794;2022-07-29T13:22:58;161455.97;;;34.19;30.61
5350;BME280;2697;42.144;24.794;2022-07-29T13:25:33;161465.31;;;34.22;30.68
5350;BME280;2697;42.144;24.794;2022-07-29T13:27:59;161508.19;;;34.39;30.93
5350;BME280;2697;42.144;24.794;2022-07-29T13:30:25;161509.53;;;34.39;30.55
5350;BME280;2697;42.144;24.794;2022-07-29T13:32:51;161524.28;;;34.45;30.25
5350;BME280;2697;42.144;24.794;2022-07-29T13:35:17;161565.72;;;34.61;29.55
5350;BME280;2697;42.144;24.794;2022-07-29T13:37:43;161605.88;;;34.76;29.88
5350;BME280;2697;42.144;24.794;2022-07-29T13:40:09;161639.38;;;34.89;30.33
5350;BME280;2697;42.144;24.794;2022-07-29T13:42:36;161596.53;;;34.72;30.17
5350;BME280;2697;42.144;24.794;2022-07-29T13:45:02;161567.06;;;34.61;30.88
5350;BME280;2697;42.144;24.794;2022-07-29T13:47:28;161533.63;;;34.48;30.55
5350;BME280;2697;42.144;24.794;2022-07-29T13:49:54;161492.06;;;34.33;31.08
5350;BME280;2697;42.144;24.794;2022-07-29T13:52:20;161493.41;;;34.33;30.28
5350;BME280;2697;42.144;24.794;2022-07-29T13:54:46;161458.63;;;34.20;30.37
5350;BME280;2697;42.144;24.794;2022-07-29T13:57:12;161555.03;;;34.56;29.89
5350;BME280;2697;42.144;24.794;2022-07-29T13:59:40;161536.28;;;34.49;30.39
5350;BME280;2697;42.144;24.794;2022-07-29T14:02:05;161525.59;;;34.45;29.77
5350;BME280;2697;42.144;24.794;2022-07-29T14:04:31;161513.53;;;34.41;29.46
5350;BME280;2697;42.144;24.794;2022-07-29T14:06:57;161431.88;;;34.10;29.57
5350;BME280;2697;42.144;24.794;2022-07-29T14:09:23;161480.06;;;34.28;29.99
5350;BME280;2697;42.144;24.794;2022-07-29T14:11:48;161534.97;;;34.49;30.48
5350;BME280;2697;42.144;24.794;2022-07-29T14:14:16;161549.69;;;34.54;30.08
5350;BME280;2697;42.144;24.794;2022-07-29T14:16:41;161505.47;;;34.38;29.77
5350;BME280;2697;42.144;24.794;2022-07-29T14:19:06;161564.38;;;34.60;30.61